createdAt,value
2019-04-21T00:03:43.047Z,16.40
2019-04-21T00:08:10.907Z,16.30
2019-04-21T00:12:16.406Z,16.20
2019-04-21T00:16:06.810Z,16.20
2019-04-21T00:20:19.385Z,16.10
2019-04-21T00:24:32.038Z,15.90
2019-04-21T00:28:49.049Z,15.90
2019-04-21T00:32:46.044Z,15.80
2019-04-21T00:36:50.235Z,15.70
2019-04-21T00:41:16.130Z,15.60
2019-04-21T00:45:09.755Z,15.60
2019-04-21T00:49:19.673Z,15.50
2019-04-21T00:53:51.916Z,15.50
2019-04-21T00:57:57.147Z,15.40
2019-04-21T01:01:59.749Z,15.30
2019-04-21T01:06:13.823Z,15.20
2019-04-21T01:10:09.157Z,15.20
2019-04-21T01:14:32.888Z,15.10
2019-04-21T01:18:33.223Z,15.00
2019-04-21T01:22:16.584Z,14.90
2019-04-21T01:26:35.267Z,14.80
2019-04-21T01:30:54.327Z,14.80
2019-04-21T01:34:57.963Z,14.70
2019-04-21T01:39:08.035Z,14.70
2019-04-21T01:43:15.071Z,14.60
2019-04-21T01:47:16.165Z,14.60
2019-04-21T01:51:27.873Z,14.50
2019-04-21T01:56:01.897Z,14.50
2019-04-21T02:00:00.842Z,14.40
2019-04-21T02:04:24.088Z,14.30
2019-04-21T02:08:21.581Z,14.30
2019-04-21T02:12:34.579Z,14.20
2019-04-21T02:16:40.542Z,14.20
2019-04-21T02:20:38.746Z,14.10
2019-04-21T02:25:05.991Z,14.00
2019-04-21T02:29:31.135Z,14.00
2019-04-21T02:33:43.109Z,13.90
2019-04-21T02:37:51.181Z,13.80
2019-04-21T02:41:55.837Z,13.80
2019-04-21T02:45:46.699Z,13.80
2019-04-21T02:54:33.394Z,13.60
2019-04-21T02:58:18.351Z,13.60
2019-04-21T03:07:19.455Z,13.50
2019-04-21T03:15:25.163Z,13.30
2019-04-21T03:19:36.193Z,13.30
2019-04-21T03:23:46.726Z,13.20
2019-04-21T03:36:33.337Z,13.10
2019-04-21T03:40:08.025Z,13.00
2019-04-21T03:44:14.532Z,13.00
2019-04-21T03:48:31.960Z,13.00
2019-04-21T03:52:30.208Z,12.90
2019-04-21T04:05:45.294Z,12.80
2019-04-21T04:09:37.559Z,12.70
2019-04-21T04:17:49.942Z,12.60
2019-04-21T04:22:15.100Z,12.50
2019-04-21T04:26:09.208Z,12.50
2019-04-21T04:30:17.593Z,12.40
2019-04-21T04:34:22.712Z,12.40
2019-04-21T04:38:32.205Z,12.40
2019-04-21T04:42:51.482Z,12.40
2019-04-21T04:46:57.663Z,12.30
2019-04-21T05:03:28.948Z,12.20
2019-04-21T05:07:34.159Z,12.10
2019-04-21T05:15:32.202Z,12.00
2019-04-21T05:20:01.774Z,11.90
2019-04-21T05:23:47.008Z,12.00
2019-04-21T05:27:55.343Z,11.90
2019-04-21T05:32:17.102Z,11.90
2019-04-21T05:36:52.430Z,11.90
2019-04-21T05:40:52.745Z,11.80
2019-04-21T05:45:18.537Z,11.80
2019-04-21T05:49:38.760Z,11.90
2019-04-21T05:53:52.108Z,12.80
2019-04-21T05:57:54.328Z,13.50
2019-04-21T06:02:15.225Z,13.40
2019-04-21T06:06:20.664Z,13.70
2019-04-21T06:10:20.450Z,14.10
2019-04-21T06:14:30.501Z,14.60
2019-04-21T06:18:44.826Z,14.90
2019-04-21T06:22:43.160Z,14.50
2019-04-21T06:27:05.388Z,14.70
2019-04-21T06:31:07.141Z,14.80
2019-04-21T06:35:28.153Z,15.70
2019-04-21T06:39:40.501Z,15.70
2019-04-21T06:43:48.528Z,15.70
2019-04-21T06:47:57.995Z,16.60
2019-04-21T06:51:58.310Z,16.60
2019-04-21T06:56:05.065Z,16.20
2019-04-21T07:00:12.057Z,16.50
2019-04-21T07:04:36.737Z,16.90
2019-04-21T07:12:35.492Z,17.30
2019-04-21T07:16:45.211Z,17.40
2019-04-21T07:20:56.436Z,17.60
2019-04-21T07:25:05.655Z,17.10
2019-04-21T07:29:11.623Z,17.20
2019-04-21T07:33:33.174Z,17.70
2019-04-21T07:37:23.877Z,17.80
2019-04-21T07:41:18.505Z,17.50
2019-04-21T07:45:30.425Z,17.40
2019-04-21T07:49:53.128Z,18.10
2019-04-21T07:54:02.264Z,18.70
2019-04-21T07:58:02.684Z,18.40
2019-04-21T08:02:13.244Z,18.70
2019-04-21T08:06:22.406Z,19.00
2019-04-21T08:10:30.003Z,18.90
2019-04-21T08:14:38.471Z,18.70
2019-04-21T08:18:47.230Z,18.50
2019-04-21T08:22:51.108Z,18.70
2019-04-21T08:27:01.474Z,19.30
2019-04-21T08:31:10.318Z,19.10
2019-04-21T08:35:33.853Z,19.20
2019-04-21T08:39:20.028Z,18.70
2019-04-21T08:43:40.000Z,19.60
2019-04-21T08:47:39.882Z,20.30
2019-04-21T08:51:50.499Z,19.70
2019-04-21T09:00:27.832Z,18.80
2019-04-21T09:04:31.382Z,19.50
2019-04-21T09:08:39.579Z,20.30
2019-04-21T09:12:41.764Z,20.40
2019-04-21T09:16:47.488Z,20.70
2019-04-21T09:20:58.452Z,20.30
2019-04-21T09:25:04.325Z,20.60
2019-04-21T09:29:05.868Z,20.70
2019-04-21T09:33:03.653Z,21.20
2019-04-21T09:37:18.990Z,20.80
2019-04-21T09:41:21.991Z,20.90
2019-04-21T09:45:24.493Z,21.10
2019-04-21T09:49:33.168Z,21.10
2019-04-21T09:53:41.121Z,21.30
2019-04-21T09:57:50.066Z,21.40
2019-04-21T10:01:58.992Z,21.50
2019-04-21T10:06:00.609Z,20.30
2019-04-21T10:10:08.149Z,19.70
2019-04-21T10:14:14.032Z,21.10
2019-04-21T10:18:21.692Z,21.80
2019-04-21T10:22:28.742Z,22.00
2019-04-21T10:26:35.593Z,22.10
2019-04-21T10:30:42.560Z,21.10
2019-04-21T10:34:49.471Z,22.30
2019-04-21T10:38:57.128Z,22.40
2019-04-21T10:43:03.799Z,22.60
2019-04-21T10:47:10.659Z,22.00
2019-04-21T10:51:17.148Z,22.30
2019-04-21T10:55:40.470Z,22.80
2019-04-21T10:59:31.086Z,22.30
2019-04-21T11:03:55.148Z,21.50
2019-04-21T11:08:08.880Z,22.30
2019-04-21T11:12:08.290Z,22.30
2019-04-21T11:16:15.073Z,23.20
2019-04-21T11:20:20.669Z,23.80
2019-04-21T11:24:27.140Z,24.10
2019-04-21T11:28:32.795Z,23.20
2019-04-21T11:32:39.268Z,24.10
2019-04-21T11:36:45.964Z,23.50
2019-04-21T11:40:51.853Z,22.20
2019-04-21T11:44:57.643Z,23.00
2019-04-21T11:49:04.157Z,24.30
2019-04-21T11:53:10.639Z,25.00
2019-04-21T11:57:22.729Z,24.40
2019-04-21T12:01:25.634Z,25.10
2019-04-21T12:05:31.396Z,24.30
2019-04-21T12:09:37.620Z,24.50
2019-04-21T12:13:43.431Z,24.50
2019-04-21T12:17:50.101Z,25.30
2019-04-21T12:22:05.398Z,26.00
2019-04-21T12:26:03.319Z,26.20
2019-04-21T12:30:11.351Z,26.20
2019-04-21T12:34:18.128Z,25.40
2019-04-21T12:38:36.397Z,25.50
2019-04-21T12:42:32.428Z,26.50
2019-04-21T12:46:38.292Z,26.30
2019-04-21T12:50:45.806Z,26.30
2019-04-21T12:54:51.563Z,24.70
2019-04-21T12:58:57.651Z,24.60
2019-04-21T13:03:03.696Z,24.90
2019-04-21T13:07:09.832Z,24.70
2019-04-21T13:11:17.113Z,25.20
2019-04-21T13:15:22.882Z,26.70
2019-04-21T13:19:29.362Z,27.20
2019-04-21T13:23:35.076Z,27.70
2019-04-21T13:27:40.947Z,27.90
2019-04-21T13:31:48.033Z,26.50
2019-04-21T13:35:55.154Z,27.80
2019-04-21T13:40:31.260Z,28.40
2019-04-21T13:44:17.880Z,25.90
2019-04-21T13:48:24.360Z,27.90
2019-04-21T13:52:30.937Z,28.70
2019-04-21T13:56:38.444Z,29.00
2019-04-21T14:00:45.448Z,28.70
2019-04-21T14:04:51.781Z,29.10
2019-04-21T14:08:58.943Z,29.00
2019-04-21T14:13:04.767Z,26.70
2019-04-21T14:17:10.867Z,26.90
2019-04-21T14:21:16.565Z,26.20
2019-04-21T14:25:22.189Z,25.30
2019-04-21T14:29:27.914Z,27.90
2019-04-21T14:33:36.136Z,27.70
2019-04-21T14:37:42.551Z,26.90
2019-04-21T14:41:48.347Z,27.30
2019-04-21T14:46:17.143Z,28.60
2019-04-21T14:50:42.053Z,28.00
2019-04-21T14:54:50.968Z,26.10
2019-04-21T14:58:58.689Z,25.00
2019-04-21T15:03:03.910Z,27.10
2019-04-21T15:07:09.734Z,28.50
2019-04-21T15:11:17.969Z,28.60
2019-04-21T15:15:23.753Z,27.60
2019-04-21T15:19:30.487Z,27.20
2019-04-21T15:23:38.071Z,27.50
2019-04-21T15:27:46.530Z,29.10
2019-04-21T15:31:52.623Z,29.20
2019-04-21T15:35:58.368Z,26.80
2019-04-21T15:40:15.061Z,28.60
2019-04-21T15:44:12.466Z,28.90
2019-04-21T15:48:20.145Z,28.90
2019-04-21T15:52:28.030Z,28.60
2019-04-21T15:56:51.292Z,28.10
2019-04-21T16:01:07.267Z,27.50
2019-04-21T16:05:13.094Z,27.90
2019-04-21T16:09:21.743Z,28.50
2019-04-21T16:13:27.607Z,28.60
2019-04-21T16:17:35.108Z,29.20
2019-04-21T16:21:44.307Z,28.10
2019-04-21T16:25:48.711Z,27.90
2019-04-21T16:29:54.430Z,28.20
2019-04-21T16:34:01.024Z,28.50
2019-04-21T16:38:07.695Z,28.60
2019-04-21T16:42:14.212Z,28.60
2019-04-21T16:46:21.087Z,28.60
2019-04-21T16:50:27.963Z,28.50
2019-04-21T16:54:33.732Z,27.80
2019-04-21T16:58:58.869Z,28.10
2019-04-21T17:03:06.375Z,28.10
2019-04-21T17:07:13.457Z,27.50
2019-04-21T17:11:26.168Z,27.60
2019-04-21T17:15:46.124Z,27.60
2019-04-21T17:19:43.015Z,27.50
2019-04-21T17:23:44.249Z,27.30
2019-04-21T17:27:51.117Z,27.20
2019-04-21T17:31:57.377Z,27.10
2019-04-21T17:36:03.166Z,26.90
2019-04-21T17:40:09.398Z,26.70
2019-04-21T17:44:15.164Z,26.70
2019-04-21T17:48:21.583Z,26.60
2019-04-21T17:52:48.325Z,26.50
2019-04-21T17:57:11.043Z,26.40
2019-04-21T18:01:20.628Z,26.30
2019-04-21T18:05:28.981Z,26.10
2019-04-21T18:09:47.084Z,26.00
2019-04-21T18:13:26.547Z,25.90
2019-04-21T18:17:32.234Z,25.70
2019-04-21T18:21:56.033Z,25.60
2019-04-21T18:26:04.178Z,25.40
2019-04-21T18:30:26.539Z,25.30
2019-04-21T18:34:59.689Z,25.10
2019-04-21T18:39:37.885Z,25.00
2019-04-21T18:44:04.720Z,24.80
2019-04-21T18:48:06.778Z,24.70
2019-04-21T18:52:32.549Z,24.50
2019-04-21T18:56:29.673Z,24.30
2019-04-21T19:00:40.152Z,24.20
2019-04-21T19:04:44.956Z,24.10
2019-04-21T19:09:10.310Z,23.90
2019-04-21T19:18:11.897Z,23.60
2019-04-21T19:21:31.159Z,23.50
2019-04-21T19:25:41.214Z,23.30
2019-04-21T19:30:04.090Z,23.20
2019-04-21T19:33:48.178Z,23.10
2019-04-21T19:37:56.429Z,23.00
2019-04-21T19:42:03.007Z,22.80
2019-04-21T19:46:21.222Z,22.70
2019-04-21T19:50:28.683Z,22.50
2019-04-21T19:54:25.250Z,22.40
2019-04-21T19:58:27.453Z,22.30
2019-04-21T20:02:32.348Z,22.20
2019-04-21T20:06:52.227Z,22.00
2019-04-21T20:11:04.048Z,21.90
2019-04-21T20:15:20.493Z,21.80
2019-04-21T20:19:08.339Z,21.70
2019-04-21T20:23:19.240Z,21.50
2019-04-21T20:27:33.789Z,21.40
2019-04-21T20:31:49.016Z,21.30
2019-04-21T20:36:11.973Z,21.20
2019-04-21T20:39:53.377Z,21.10
2019-04-21T20:44:11.977Z,21.00
2019-04-21T20:48:08.185Z,20.80
2019-04-21T20:52:33.630Z,20.70
2019-04-21T20:56:27.368Z,20.60
2019-04-21T21:00:54.740Z,20.50
2019-04-21T21:04:40.484Z,20.40
2019-04-21T21:08:55.460Z,20.30
2019-04-21T21:13:06.333Z,20.20
2019-04-21T21:17:30.350Z,20.10
2019-04-21T21:21:22.376Z,20.00
2019-04-21T21:25:35.320Z,19.90
2019-04-21T21:29:33.015Z,19.70
2019-04-21T21:33:54.200Z,19.70
2019-04-21T21:37:58.714Z,19.60
2019-04-21T21:41:49.790Z,19.50
2019-04-21T21:45:55.594Z,19.40
2019-04-21T21:50:07.332Z,19.30
2019-04-21T21:54:05.349Z,19.20
2019-04-21T21:58:12.377Z,19.10
2019-04-21T22:02:28.294Z,19.00
2019-04-21T22:06:41.066Z,18.90
2019-04-21T22:10:33.248Z,18.80
2019-04-21T22:14:46.897Z,18.70
2019-04-21T22:19:06.907Z,18.60
2019-04-21T22:23:05.021Z,18.50
2019-04-21T22:27:05.364Z,18.40
2019-04-21T22:31:20.665Z,18.30
2019-04-21T22:35:30.065Z,18.20
2019-04-21T22:39:49.749Z,18.10
2019-04-21T22:43:42.128Z,18.00
2019-04-21T22:47:45.135Z,17.90
2019-04-21T22:51:53.892Z,17.90
2019-04-21T22:56:13.633Z,17.70
2019-04-21T23:00:16.466Z,17.70
2019-04-21T23:04:25.406Z,17.60
2019-04-21T23:08:33.183Z,17.50
2019-04-21T23:12:40.128Z,17.40
2019-04-21T23:16:46.299Z,17.40
2019-04-21T23:21:08.480Z,17.30
2019-04-21T23:25:18.153Z,17.20
2019-04-21T23:29:33.439Z,17.10
2019-04-21T23:33:16.409Z,17.00
2019-04-21T23:37:24.137Z,16.90
2019-04-21T23:41:37.324Z,16.80
2019-04-21T23:45:38.184Z,16.70
2019-04-21T23:49:51.121Z,16.60
2019-04-21T23:53:51.147Z,16.60
2019-04-21T23:58:06.968Z,16.50
